You are not logged in, Click here to log in
昆明長水國際機場KMG / ZPPP 中華人民共和國雲南省昆明市新啟用
ICAO: ZPPP Country: 中華人民共和國雲南省昆明市新啟用
Latitude: 25.0992 Longitude: 102.927
Total Arrivals: 16 Total Departures: 12
Latest Arrival: MU2032 (VYYY-ZPPP)CHU. CHUHAO Latest Departure: 8L9947 (ZPPP-ZUUU)CHU. CHUHAO
Scenery:
METAR : ZPPP 131000Z 22006MPS CAVOK 15/02 Q1024 NOSIG

昆明長水國際機場KMG

You are accessing this site from IP address 100.26.176.182. Virtual Airline. CMS by phpVMS.Website designed by Zumeweb and edited by Theo Bearman.
There is 0 User(s) Online: | and 3 Guest(s) Online.
All information on this site is for fight simulation purposes only. This site is for flight logging for pilots of Virtual Airline&模擬飛行論壇 FlySim only.